createdAt,value
2023-01-28T00:02:05.636Z,1.01
2023-01-28T00:04:33.686Z,0.98
2023-01-28T00:07:02.675Z,0.88
2023-01-28T00:09:30.771Z,0.83
2023-01-28T00:11:59.151Z,0.79
2023-01-28T00:14:27.836Z,0.73
2023-01-28T00:17:00.177Z,0.61
2023-01-28T00:19:28.288Z,0.51
2023-01-28T00:21:56.963Z,0.47
2023-01-28T00:24:24.998Z,0.46
2023-01-28T00:26:53.053Z,0.44
2023-01-28T00:29:21.295Z,0.44
2023-01-28T00:31:49.207Z,0.43
2023-01-28T00:34:17.532Z,0.43
2023-01-28T00:36:46.028Z,0.42
2023-01-28T00:39:15.340Z,0.41
2023-01-28T00:41:43.491Z,0.36
2023-01-28T00:44:11.831Z,0.24
2023-01-28T00:46:42.263Z,0.17
2023-01-28T00:49:10.374Z,0.18
2023-01-28T00:51:38.547Z,0.19
2023-01-28T00:54:06.789Z,0.19
2023-01-28T00:56:36.916Z,0.14
2023-01-28T00:59:09.915Z,-0.00
2023-01-28T01:01:39.174Z,-0.07
2023-01-28T01:04:07.309Z,-0.11
2023-01-28T01:06:38.622Z,-0.19
2023-01-28T01:09:09.024Z,-0.22
2023-01-28T01:11:37.544Z,-0.24
2023-01-28T01:14:07.345Z,-0.26
2023-01-28T01:16:36.293Z,-0.24
2023-01-28T01:19:04.480Z,-0.18
2023-01-28T01:21:32.506Z,-0.12
2023-01-28T01:24:00.523Z,-0.09
2023-01-28T01:26:28.832Z,-0.10
2023-01-28T01:28:58.668Z,-0.12
2023-01-28T01:31:26.690Z,-0.16
2023-01-28T01:33:54.739Z,-0.26
2023-01-28T01:36:23.699Z,-0.34
2023-01-28T01:38:55.560Z,-0.34
2023-01-28T01:41:27.995Z,-0.36
2023-01-28T01:43:58.393Z,-0.43
2023-01-28T01:46:33.490Z,-0.44
2023-01-28T01:49:18.868Z,-0.40
2023-01-28T01:51:48.230Z,-0.37
2023-01-28T01:54:17.252Z,-0.41
2023-01-28T01:56:45.797Z,-0.47
2023-01-28T01:59:16.980Z,-0.56
2023-01-28T02:01:45.942Z,-0.58
2023-01-28T02:04:23.725Z,-0.59
2023-01-28T02:06:52.073Z,-0.59
2023-01-28T02:09:26.672Z,-0.58
2023-01-28T02:11:58.525Z,-0.57
2023-01-28T02:14:31.486Z,-0.51
2023-01-28T02:17:00.829Z,-0.48
2023-01-28T02:19:59.074Z,-0.45
2023-01-28T02:22:52.573Z,-0.43
2023-01-28T02:25:58.281Z,-0.39
2023-01-28T02:28:41.334Z,-0.33
2023-01-28T02:31:15.944Z,-0.31
2023-01-28T02:34:02.973Z,-0.33
2023-01-28T02:36:43.364Z,-0.33
2023-01-28T02:39:15.196Z,-0.33
2023-01-28T02:41:49.164Z,-0.36
2023-01-28T02:44:17.737Z,-0.43
2023-01-28T02:47:04.606Z,-0.48
2023-01-28T02:49:52.861Z,-0.47
2023-01-28T02:53:04.912Z,-0.56
2023-01-28T02:55:48.185Z,-0.64
2023-01-28T02:58:20.954Z,-0.72
2023-01-28T03:01:23.040Z,-0.80
2023-01-28T03:04:04.935Z,-0.84
2023-01-28T03:06:39.372Z,-0.91
2023-01-28T03:09:27.285Z,-0.94
2023-01-28T03:12:18.361Z,-0.91
2023-01-28T03:15:11.389Z,-0.87
2023-01-28T03:18:27.298Z,-0.82
2023-01-28T03:21:26.639Z,-0.77
2023-01-28T03:24:22.122Z,-0.74
2023-01-28T03:27:35.288Z,-0.73
2023-01-28T03:30:32.153Z,-0.73
2023-01-28T03:33:22.996Z,-0.81
2023-01-28T03:36:09.843Z,-0.83
2023-01-28T03:38:48.643Z,-0.81
2023-01-28T03:41:23.703Z,-0.85
2023-01-28T03:43:54.924Z,-0.84
2023-01-28T03:46:23.387Z,-0.80
2023-01-28T03:48:51.457Z,-0.80
2023-01-28T03:51:20.187Z,-0.80
2023-01-28T03:53:48.738Z,-0.80
2023-01-28T03:56:18.551Z,-0.80
2023-01-28T03:58:53.126Z,-0.79
2023-01-28T04:01:21.412Z,-0.81
2023-01-28T04:03:49.823Z,-0.82
2023-01-28T04:06:29.092Z,-0.79
2023-01-28T04:09:15.600Z,-0.77
2023-01-28T04:12:19.664Z,-0.80
2023-01-28T04:14:51.372Z,-0.83
2023-01-28T04:17:27.331Z,-0.86
2023-01-28T04:19:55.396Z,-0.87
2023-01-28T04:22:23.400Z,-0.86
2023-01-28T04:24:53.414Z,-0.85
2023-01-28T04:27:21.887Z,-0.84
2023-01-28T04:29:51.182Z,-0.84
2023-01-28T04:32:51.795Z,-0.84
2023-01-28T04:35:33.932Z,-0.83
2023-01-28T04:38:20.412Z,-0.88
2023-01-28T04:41:08.629Z,-0.94
2023-01-28T04:43:37.331Z,-0.94
2023-01-28T04:46:34.815Z,-0.89
2023-01-28T04:49:05.865Z,-0.87
2023-01-28T04:51:51.621Z,-0.86
2023-01-28T04:54:22.554Z,-0.84
2023-01-28T04:56:50.795Z,-0.85
2023-01-28T04:59:20.131Z,-0.87
2023-01-28T05:01:49.285Z,-0.89
2023-01-28T05:04:17.407Z,-0.91
2023-01-28T05:06:45.577Z,-0.93
2023-01-28T05:09:19.796Z,-0.94
2023-01-28T05:11:48.986Z,-0.97
2023-01-28T05:14:17.342Z,-1.00
2023-01-28T05:16:50.434Z,-1.01
2023-01-28T05:19:19.764Z,-1.06
2023-01-28T05:21:48.315Z,-1.08
2023-01-28T05:24:25.487Z,-1.06
2023-01-28T05:26:54.763Z,-1.06
2023-01-28T05:29:22.838Z,-1.07
2023-01-28T05:31:51.263Z,-1.09
2023-01-28T05:34:19.341Z,-1.11
2023-01-28T05:36:47.343Z,-1.16
2023-01-28T05:39:37.093Z,-1.20
2023-01-28T05:42:05.585Z,-1.20
2023-01-28T05:44:37.958Z,-1.21
2023-01-28T05:47:25.166Z,-1.21
2023-01-28T05:50:01.033Z,-1.25
2023-01-28T05:52:34.945Z,-1.30
2023-01-28T05:55:04.325Z,-1.30
2023-01-28T05:57:32.717Z,-1.36
2023-01-28T06:00:00.832Z,-1.38
2023-01-28T06:02:28.896Z,-1.37
2023-01-28T06:05:00.238Z,-1.44
2023-01-28T08:25:00.084Z,-1.04
2023-01-28T08:27:28.611Z,-0.90
2023-01-28T08:29:56.761Z,-0.87
2023-01-28T08:32:24.909Z,-0.84
2023-01-28T08:34:54.141Z,-0.86
2023-01-28T08:37:22.682Z,-0.85
2023-01-28T08:39:51.131Z,-0.84
2023-01-28T08:42:23.087Z,-0.81
2023-01-28T08:44:51.223Z,-0.75
2023-01-28T08:47:19.223Z,-0.78
2023-01-28T08:49:51.121Z,-0.76
2023-01-28T08:52:19.340Z,-0.73
2023-01-28T08:54:47.569Z,-0.72
2023-01-28T08:57:15.686Z,-0.68
2023-01-28T08:59:46.274Z,-0.63
2023-01-28T09:02:29.403Z,-0.65
2023-01-28T09:05:00.129Z,-0.65
2023-01-28T09:07:28.519Z,-0.64
2023-01-28T09:09:56.940Z,-0.62
2023-01-28T09:12:25.178Z,-0.59
2023-01-28T09:14:53.853Z,-0.51
2023-01-28T09:17:22.095Z,-0.39
2023-01-28T09:19:50.578Z,-0.26
2023-01-28T09:22:18.674Z,-0.13
2023-01-28T09:24:47.032Z,0.01
2023-01-28T09:27:15.124Z,0.17
2023-01-28T09:29:43.354Z,0.36
2023-01-28T09:32:11.389Z,0.50
2023-01-28T09:34:39.431Z,0.54
2023-01-28T09:37:07.629Z,0.53
2023-01-28T09:39:35.831Z,0.59
2023-01-28T09:42:47.790Z,0.72
2023-01-28T09:45:28.771Z,0.83
2023-01-28T09:47:58.626Z,0.93
2023-01-28T09:50:35.732Z,1.00
2023-01-28T09:53:12.857Z,1.08
2023-01-28T09:55:46.357Z,1.15
2023-01-28T09:58:16.457Z,1.18
2023-01-28T10:01:03.325Z,1.21
2023-01-28T10:03:43.684Z,1.19
2023-01-28T10:06:14.432Z,1.20
2023-01-28T10:09:07.911Z,1.23
2023-01-28T10:12:04.848Z,1.25
2023-01-28T10:24:17.162Z,1.21
2023-01-28T10:26:45.552Z,1.17
2023-01-28T10:29:17.488Z,1.10
2023-01-28T10:31:53.436Z,1.08
2023-01-28T10:34:22.110Z,1.09
2023-01-28T10:36:50.544Z,1.08
2023-01-28T10:39:22.395Z,1.01
2023-01-28T10:41:57.856Z,0.86
2023-01-28T10:44:34.971Z,0.79
2023-01-28T10:47:08.995Z,0.81
2023-01-28T10:49:41.808Z,0.84
2023-01-28T10:52:14.214Z,0.90
2023-01-28T10:54:42.404Z,0.93
2023-01-28T10:57:13.344Z,0.93
2023-01-28T10:59:44.523Z,0.98
2023-01-28T11:02:39.117Z,1.00
2023-01-28T11:05:18.290Z,0.95
2023-01-28T11:07:48.980Z,0.89
2023-01-28T11:10:26.791Z,0.81
2023-01-28T11:12:58.783Z,0.80
2023-01-28T11:15:27.528Z,0.81
2023-01-28T11:18:10.705Z,0.83
2023-01-28T11:20:41.668Z,0.85
2023-01-28T11:23:23.008Z,0.86
2023-01-28T11:26:00.296Z,0.87
2023-01-28T11:28:28.574Z,0.90
2023-01-28T11:30:57.335Z,0.94
2023-01-28T11:33:34.210Z,0.94
2023-01-28T11:36:19.075Z,0.99
2023-01-28T11:38:55.129Z,1.02
2023-01-28T11:41:30.381Z,0.97
2023-01-28T11:43:59.197Z,0.94
2023-01-28T11:46:30.236Z,0.92
2023-01-28T11:49:19.648Z,0.93
2023-01-28T11:52:07.481Z,0.94
2023-01-28T11:55:18.522Z,0.95
2023-01-28T11:57:50.849Z,0.96
2023-01-28T12:00:43.662Z,0.99
2023-01-28T12:03:34.705Z,1.02
2023-01-28T14:25:21.272Z,1.04
2023-01-28T14:27:52.470Z,1.14
2023-01-28T14:30:50.158Z,1.13
2023-01-28T14:33:18.607Z,1.08
2023-01-28T14:35:47.634Z,1.10
2023-01-28T14:38:17.894Z,1.23
2023-01-28T14:40:45.953Z,1.44
2023-01-28T14:43:17.133Z,1.53
2023-01-28T14:46:10.292Z,1.53
2023-01-28T14:48:38.566Z,1.47
2023-01-28T14:51:31.474Z,1.43
2023-01-28T14:54:17.814Z,1.40
2023-01-28T14:57:13.971Z,1.33
2023-01-28T14:59:49.712Z,1.27
2023-01-28T15:02:28.456Z,1.23
2023-01-28T15:05:11.281Z,1.19
2023-01-28T15:07:39.516Z,1.19
2023-01-28T15:10:20.437Z,1.18
2023-01-28T15:12:54.649Z,1.17
2023-01-28T15:15:33.319Z,1.14
2023-01-28T15:18:13.459Z,1.13
2023-01-28T15:20:50.111Z,1.11
2023-01-28T15:23:29.396Z,1.11
2023-01-28T15:25:57.450Z,1.11
2023-01-28T15:28:37.215Z,1.13
2023-01-28T15:31:05.777Z,1.15
2023-01-28T15:33:38.356Z,1.16
2023-01-28T15:36:07.146Z,1.17
2023-01-28T15:38:35.727Z,1.16
2023-01-28T15:41:03.803Z,1.12
2023-01-28T15:43:36.292Z,1.07
2023-01-28T15:46:11.412Z,1.08
2023-01-28T15:48:42.012Z,1.09
2023-01-28T15:51:18.897Z,1.08
2023-01-28T15:53:50.458Z,1.10
2023-01-28T15:56:25.482Z,1.11
2023-01-28T15:58:53.669Z,1.10
2023-01-28T16:01:22.473Z,1.07
2023-01-28T16:04:05.089Z,1.05
2023-01-28T16:06:36.817Z,1.04
2023-01-28T16:09:06.531Z,1.06
2023-01-28T16:11:41.891Z,1.09
2023-01-28T16:14:28.050Z,1.11
2023-01-28T16:16:57.841Z,1.12
2023-01-28T16:19:48.202Z,1.13
2023-01-28T16:22:20.771Z,1.08
2023-01-28T16:24:52.749Z,1.01
2023-01-28T16:27:28.790Z,1.00
2023-01-28T16:29:57.554Z,1.00
2023-01-28T16:32:36.623Z,1.00
2023-01-28T16:35:18.873Z,1.01
2023-01-28T16:37:48.106Z,1.02
2023-01-28T16:40:22.198Z,1.03
2023-01-28T16:42:50.361Z,1.04
2023-01-28T16:45:23.272Z,1.06
2023-01-28T16:47:51.879Z,1.08
2023-01-28T16:50:22.031Z,1.06
2023-01-28T16:52:51.801Z,0.99
2023-01-28T16:55:20.682Z,0.92
2023-01-28T16:57:49.340Z,0.86
2023-01-28T17:00:23.338Z,0.81
2023-01-28T17:02:52.267Z,0.79
2023-01-28T17:05:23.352Z,0.77
2023-01-28T17:07:56.386Z,0.77
2023-01-28T17:10:25.100Z,0.76
2023-01-28T17:12:54.468Z,0.76
2023-01-28T17:15:22.487Z,0.74
2023-01-28T17:17:52.966Z,0.73
2023-01-28T17:20:21.370Z,0.71
2023-01-28T17:22:49.827Z,0.65
2023-01-28T17:25:18.342Z,0.58
2023-01-28T17:27:48.802Z,0.56
2023-01-28T17:30:19.991Z,0.56
2023-01-28T17:32:48.114Z,0.52
2023-01-28T17:35:16.760Z,0.48
2023-01-28T17:37:47.896Z,0.48
2023-01-28T17:40:16.073Z,0.49
2023-01-28T17:42:44.862Z,0.50
2023-01-28T17:45:17.544Z,0.48
2023-01-28T17:47:46.138Z,0.45
2023-01-28T17:50:14.145Z,0.45
2023-01-28T17:52:44.118Z,0.47
2023-01-28T17:55:12.340Z,0.52
2023-01-28T17:57:40.733Z,0.52
2023-01-28T18:00:10.665Z,0.46
2023-01-28T18:02:41.560Z,0.41
2023-01-28T18:05:09.991Z,0.38
2023-01-28T18:07:44.088Z,0.34
2023-01-28T20:22:11.770Z,-1.78
2023-01-28T20:24:39.925Z,-1.76
2023-01-28T20:27:08.083Z,-1.82
2023-01-28T20:29:36.080Z,-1.90
2023-01-28T20:32:15.845Z,-2.00
2023-01-28T20:34:46.637Z,-2.13
2023-01-28T20:37:14.706Z,-2.27
2023-01-28T20:39:42.774Z,-2.35
2023-01-28T20:42:13.610Z,-2.39
2023-01-28T20:44:41.576Z,-2.43
2023-01-28T20:47:09.855Z,-2.48
2023-01-28T20:49:38.219Z,-2.55
2023-01-28T20:52:06.515Z,-2.56
2023-01-28T20:54:34.991Z,-2.57
2023-01-28T20:57:03.064Z,-2.56
2023-01-28T20:59:32.665Z,-2.56
2023-01-28T21:02:01.046Z,-2.50
2023-01-28T21:04:29.547Z,-2.45
2023-01-28T21:06:57.594Z,-2.43
2023-01-28T21:09:27.804Z,-2.45
2023-01-28T21:11:58.879Z,-2.50
2023-01-28T21:14:27.237Z,-2.60
2023-01-28T21:16:55.455Z,-2.67
2023-01-28T21:19:23.796Z,-2.76
2023-01-28T21:21:52.080Z,-2.83
2023-01-28T21:24:22.988Z,-2.82
2023-01-28T21:26:51.492Z,-2.82
2023-01-28T21:29:19.736Z,-2.80
2023-01-28T21:31:48.065Z,-2.67
2023-01-28T21:34:17.137Z,-2.53
2023-01-28T21:36:45.158Z,-2.41
2023-01-28T21:39:13.376Z,-2.24
2023-01-28T21:41:42.074Z,-2.16
2023-01-28T21:44:11.674Z,-2.25
2023-01-28T21:46:40.443Z,-2.35
2023-01-28T21:49:10.093Z,-2.33
2023-01-28T21:51:39.779Z,-2.20
2023-01-28T21:54:10.468Z,-2.03
2023-01-28T21:56:38.570Z,-1.94
2023-01-28T21:59:25.594Z,-1.88
2023-01-28T22:01:54.848Z,-1.79
2023-01-28T22:04:30.916Z,-1.75
2023-01-28T22:06:59.536Z,-1.68
2023-01-28T22:09:28.227Z,-1.67
2023-01-28T22:11:57.620Z,-1.64
2023-01-28T22:14:25.947Z,-1.57
2023-01-28T22:16:54.344Z,-1.52
2023-01-28T22:19:22.454Z,-1.47
2023-01-28T22:21:50.460Z,-1.47
2023-01-28T22:24:20.092Z,-1.45
2023-01-28T22:26:48.409Z,-1.46
2023-01-28T22:29:17.498Z,-1.49
2023-01-28T22:31:46.613Z,-1.52
2023-01-28T22:34:15.254Z,-1.49
2023-01-28T22:36:43.950Z,-1.43
2023-01-28T22:39:13.858Z,-1.33
2023-01-28T22:41:42.210Z,-1.24
2023-01-28T22:44:10.319Z,-1.26
2023-01-28T22:46:38.497Z,-1.38
2023-01-28T22:49:06.579Z,-1.48
2023-01-28T22:51:35.797Z,-1.60
2023-01-28T22:54:03.974Z,-1.61
2023-01-28T22:56:32.156Z,-1.55
2023-01-28T22:59:02.770Z,-1.51
2023-01-28T23:01:31.199Z,-1.51
2023-01-28T23:03:59.280Z,-1.53
2023-01-28T23:06:27.760Z,-1.49
2023-01-28T23:08:56.603Z,-1.48
2023-01-28T23:11:25.445Z,-1.48
2023-01-28T23:14:13.400Z,-1.50
2023-01-28T23:17:00.187Z,-1.51
2023-01-28T23:19:47.029Z,-1.49
2023-01-28T23:22:51.892Z,-1.53
2023-01-28T23:25:20.061Z,-1.53
2023-01-28T23:27:48.043Z,-1.53
2023-01-28T23:30:16.636Z,-1.51
2023-01-28T23:32:47.280Z,-1.52
2023-01-28T23:35:15.650Z,-1.59
2023-01-28T23:37:44.035Z,-1.66
2023-01-28T23:40:12.880Z,-1.68
2023-01-28T23:42:41.936Z,-1.66
2023-01-28T23:45:13.563Z,-1.65
2023-01-28T23:47:41.912Z,-1.61
2023-01-28T23:50:10.753Z,-1.53
2023-01-28T23:52:39.368Z,-1.48
2023-01-28T23:55:08.016Z,-1.46
2023-01-28T23:57:36.167Z,-1.43
